sensor_id;sensor_type;location;lat;lon;timestamp;temperature;humidity
20045;DHT22;10183;47.808;9.476;2023-07-08T00:00:22;17.40;99.90
20045;DHT22;10183;47.808;9.476;2023-07-08T00:02:50;17.30;99.90
20045;DHT22;10183;47.808;9.476;2023-07-08T00:05:19;17.10;99.90
20045;DHT22;10183;47.808;9.476;2023-07-08T00:07:46;17.10;99.90
20045;DHT22;10183;47.808;9.476;2023-07-08T00:10:17;17.10;99.90
20045;DHT22;10183;47.808;9.476;2023-07-08T00:12:45;17.10;99.90
20045;DHT22;10183;47.808;9.476;2023-07-08T00:15:12;17.10;99.90
20045;DHT22;10183;47.808;9.476;2023-07-08T00:17:38;17.10;99.90
20045;DHT22;10183;47.808;9.476;2023-07-08T00:20:44;17.00;99.90
20045;DHT22;10183;47.808;9.476;2023-07-08T00:23:10;16.80;99.90
20045;DHT22;10183;47.808;9.476;2023-07-08T00:25:37;16.70;99.90
20045;DHT22;10183;47.808;9.476;2023-07-08T00:28:14;16.80;99.90
20045;DHT22;10183;47.808;9.476;2023-07-08T00:30:40;16.80;99.90
20045;DHT22;10183;47.808;9.476;2023-07-08T00:33:07;16.90;99.90
20045;DHT22;10183;47.808;9.476;2023-07-08T00:35:35;17.00;99.90
20045;DHT22;10183;47.808;9.476;2023-07-08T00:40:57;17.20;99.90
20045;DHT22;10183;47.808;9.476;2023-07-08T00:43:34;17.20;99.90
20045;DHT22;10183;47.808;9.476;2023-07-08T00:46:29;17.30;99.90
20045;DHT22;10183;47.808;9.476;2023-07-08T00:51:39;17.40;99.90
20045;DHT22;10183;47.808;9.476;2023-07-08T00:54:14;17.40;99.90
20045;DHT22;10183;47.808;9.476;2023-07-08T00:59:11;17.40;99.90
20045;DHT22;10183;47.808;9.476;2023-07-08T01:01:43;17.30;99.90
20045;DHT22;10183;47.808;9.476;2023-07-08T01:04:18;17.20;99.90
20045;DHT22;10183;47.808;9.476;2023-07-08T01:06:50;17.10;99.90
20045;DHT22;10183;47.808;9.476;2023-07-08T01:09:36;16.90;99.90
20045;DHT22;10183;47.808;9.476;2023-07-08T01:12:07;16.90;99.90
20045;DHT22;10183;47.808;9.476;2023-07-08T01:14:36;16.90;99.90
20045;DHT22;10183;47.808;9.476;2023-07-08T01:17:04;16.70;99.90
20045;DHT22;10183;47.808;9.476;2023-07-08T01:19:31;16.70;99.90
20045;DHT22;10183;47.808;9.476;2023-07-08T01:24:29;16.60;99.90
20045;DHT22;10183;47.808;9.476;2023-07-08T01:26:57;16.30;99.90
20045;DHT22;10183;47.808;9.476;2023-07-08T01:29:24;16.00;99.90
20045;DHT22;10183;47.808;9.476;2023-07-08T01:31:50;16.80;99.90
20045;DHT22;10183;47.808;9.476;2023-07-08T01:34:17;17.60;99.90
20045;DHT22;10183;47.808;9.476;2023-07-08T01:36:50;17.90;99.90
20045;DHT22;10183;47.808;9.476;2023-07-08T01:39:20;18.30;99.90
20045;DHT22;10183;47.808;9.476;2023-07-08T01:41:47;19.00;99.90
20045;DHT22;10183;47.808;9.476;2023-07-08T01:44:31;19.00;99.90
20045;DHT22;10183;47.808;9.476;2023-07-08T01:47:05;19.00;99.90
20045;DHT22;10183;47.808;9.476;2023-07-08T01:49:36;19.30;99.90
20045;DHT22;10183;47.808;9.476;2023-07-08T01:52:03;19.50;99.90
20045;DHT22;10183;47.808;9.476;2023-07-08T01:54:30;19.50;99.90
20045;DHT22;10183;47.808;9.476;2023-07-08T01:56:57;19.50;99.90
20045;DHT22;10183;47.808;9.476;2023-07-08T01:59:23;19.60;99.90
20045;DHT22;10183;47.808;9.476;2023-07-08T02:01:50;19.60;99.90
20045;DHT22;10183;47.808;9.476;2023-07-08T02:04:24;19.60;99.90
20045;DHT22;10183;47.808;9.476;2023-07-08T02:06:55;19.60;99.90
20045;DHT22;10183;47.808;9.476;2023-07-08T02:09:22;19.50;99.90
20045;DHT22;10183;47.808;9.476;2023-07-08T02:11:49;19.40;99.90
20045;DHT22;10183;47.808;9.476;2023-07-08T02:14:15;19.40;99.90
20045;DHT22;10183;47.808;9.476;2023-07-08T02:16:41;19.10;99.90
20045;DHT22;10183;47.808;9.476;2023-07-08T02:19:07;19.30;99.90
20045;DHT22;10183;47.808;9.476;2023-07-08T02:21:33;19.70;99.90
20045;DHT22;10183;47.808;9.476;2023-07-08T02:24:00;20.20;99.90
20045;DHT22;10183;47.808;9.476;2023-07-08T02:26:26;20.90;99.90
20045;DHT22;10183;47.808;9.476;2023-07-08T02:28:52;21.20;99.90
20045;DHT22;10183;47.808;9.476;2023-07-08T02:31:18;21.40;99.90
20045;DHT22;10183;47.808;9.476;2023-07-08T02:33:45;21.70;99.90
20045;DHT22;10183;47.808;9.476;2023-07-08T02:36:11;21.70;99.90
20045;DHT22;10183;47.808;9.476;2023-07-08T02:38:37;21.70;99.90
20045;DHT22;10183;47.808;9.476;2023-07-08T02:41:03;22.10;99.50
20045;DHT22;10183;47.808;9.476;2023-07-08T02:43:29;22.40;94.80
20045;DHT22;10183;47.808;9.476;2023-07-08T02:45:56;22.50;91.00
20045;DHT22;10183;47.808;9.476;2023-07-08T02:48:22;22.60;95.60
20045;DHT22;10183;47.808;9.476;2023-07-08T02:50:48;22.30;99.90
20045;DHT22;10183;47.808;9.476;2023-07-08T02:53:14;22.40;99.90
20045;DHT22;10183;47.808;9.476;2023-07-08T02:55:40;22.10;99.90
20045;DHT22;10183;47.808;9.476;2023-07-08T02:58:09;22.10;99.90
20045;DHT22;10183;47.808;9.476;2023-07-08T03:00:35;22.10;99.90
20045;DHT22;10183;47.808;9.476;2023-07-08T03:03:04;21.90;99.90
20045;DHT22;10183;47.808;9.476;2023-07-08T03:05:30;21.60;99.90
20045;DHT22;10183;47.808;9.476;2023-07-08T03:07:56;21.30;99.90
20045;DHT22;10183;47.808;9.476;2023-07-08T03:10:23;20.80;99.90
20045;DHT22;10183;47.808;9.476;2023-07-08T03:12:49;20.30;99.90
20045;DHT22;10183;47.808;9.476;2023-07-08T03:15:15;19.80;99.90
20045;DHT22;10183;47.808;9.476;2023-07-08T03:17:41;19.30;99.90
20045;DHT22;10183;47.808;9.476;2023-07-08T03:20:09;19.20;99.90
20045;DHT22;10183;47.808;9.476;2023-07-08T03:22:36;19.00;99.90
20045;DHT22;10183;47.808;9.476;2023-07-08T03:25:03;18.80;99.90
20045;DHT22;10183;47.808;9.476;2023-07-08T03:27:29;18.40;99.90
20045;DHT22;10183;47.808;9.476;2023-07-08T03:29:55;18.20;99.90
20045;DHT22;10183;47.808;9.476;2023-07-08T03:32:21;18.30;99.90
20045;DHT22;10183;47.808;9.476;2023-07-08T03:34:47;18.20;99.90
20045;DHT22;10183;47.808;9.476;2023-07-08T03:37:14;18.20;99.90
20045;DHT22;10183;47.808;9.476;2023-07-08T03:39:40;18.20;99.90
20045;DHT22;10183;47.808;9.476;2023-07-08T03:42:06;18.20;99.90
20045;DHT22;10183;47.808;9.476;2023-07-08T03:44:32;18.10;99.90
20045;DHT22;10183;47.808;9.476;2023-07-08T03:46:58;18.10;99.90
20045;DHT22;10183;47.808;9.476;2023-07-08T03:49:24;18.10;99.90
20045;DHT22;10183;47.808;9.476;2023-07-08T03:51:54;18.10;99.90
20045;DHT22;10183;47.808;9.476;2023-07-08T03:54:23;18.00;99.90
20045;DHT22;10183;47.808;9.476;2023-07-08T03:56:49;17.90;99.90
20045;DHT22;10183;47.808;9.476;2023-07-08T03:59:16;17.90;99.90
20045;DHT22;10183;47.808;9.476;2023-07-08T04:01:42;17.90;99.90
20045;DHT22;10183;47.808;9.476;2023-07-08T04:04:12;17.90;99.90
20045;DHT22;10183;47.808;9.476;2023-07-08T04:06:38;17.90;99.90
20045;DHT22;10183;47.808;9.476;2023-07-08T04:09:04;17.90;99.90
20045;DHT22;10183;47.808;9.476;2023-07-08T04:11:30;18.00;99.90
20045;DHT22;10183;47.808;9.476;2023-07-08T04:13:56;17.70;99.90
20045;DHT22;10183;47.808;9.476;2023-07-08T04:16:28;17.70;99.90
20045;DHT22;10183;47.808;9.476;2023-07-08T04:18:56;17.80;99.90
20045;DHT22;10183;47.808;9.476;2023-07-08T04:21:24;17.80;99.90
20045;DHT22;10183;47.808;9.476;2023-07-08T04:23:53;17.80;99.90
20045;DHT22;10183;47.808;9.476;2023-07-08T04:26:20;17.90;99.90
20045;DHT22;10183;47.808;9.476;2023-07-08T04:28:46;17.90;99.90
20045;DHT22;10183;47.808;9.476;2023-07-08T04:31:13;17.90;99.90
20045;DHT22;10183;47.808;9.476;2023-07-08T04:33:39;17.70;99.90
20045;DHT22;10183;47.808;9.476;2023-07-08T04:36:11;17.60;99.90
20045;DHT22;10183;47.808;9.476;2023-07-08T04:38:37;17.70;99.90
20045;DHT22;10183;47.808;9.476;2023-07-08T04:41:03;17.70;99.90
20045;DHT22;10183;47.808;9.476;2023-07-08T04:43:31;17.70;99.90
20045;DHT22;10183;47.808;9.476;2023-07-08T04:45:57;17.70;99.90
20045;DHT22;10183;47.808;9.476;2023-07-08T04:48:24;17.60;99.90
20045;DHT22;10183;47.808;9.476;2023-07-08T04:50:52;17.50;99.90
20045;DHT22;10183;47.808;9.476;2023-07-08T04:53:18;17.50;99.90
20045;DHT22;10183;47.808;9.476;2023-07-08T04:55:50;17.50;99.90
20045;DHT22;10183;47.808;9.476;2023-07-08T04:58:17;17.60;99.90
20045;DHT22;10183;47.808;9.476;2023-07-08T05:00:43;17.50;99.90
20045;DHT22;10183;47.808;9.476;2023-07-08T05:03:10;17.50;99.90
20045;DHT22;10183;47.808;9.476;2023-07-08T05:05:36;17.60;99.90
20045;DHT22;10183;47.808;9.476;2023-07-08T05:08:02;17.60;99.90
20045;DHT22;10183;47.808;9.476;2023-07-08T05:10:28;17.60;99.90
20045;DHT22;10183;47.808;9.476;2023-07-08T05:12:54;17.40;99.90
20045;DHT22;10183;47.808;9.476;2023-07-08T05:15:21;17.50;99.90
20045;DHT22;10183;47.808;9.476;2023-07-08T05:17:47;17.50;99.90
20045;DHT22;10183;47.808;9.476;2023-07-08T05:20:15;17.40;99.90
20045;DHT22;10183;47.808;9.476;2023-07-08T05:22:42;17.60;99.90
20045;DHT22;10183;47.808;9.476;2023-07-08T05:25:09;17.80;99.90
20045;DHT22;10183;47.808;9.476;2023-07-08T05:27:35;17.90;99.90
20045;DHT22;10183;47.808;9.476;2023-07-08T05:30:03;18.00;99.90
20045;DHT22;10183;47.808;9.476;2023-07-08T05:32:29;18.00;99.90
20045;DHT22;10183;47.808;9.476;2023-07-08T05:34:56;18.10;99.90
20045;DHT22;10183;47.808;9.476;2023-07-08T05:37:22;18.00;99.90
20045;DHT22;10183;47.808;9.476;2023-07-08T05:39:52;17.80;99.90
20045;DHT22;10183;47.808;9.476;2023-07-08T05:42:20;17.90;99.90
20045;DHT22;10183;47.808;9.476;2023-07-08T05:44:46;17.90;99.90
20045;DHT22;10183;47.808;9.476;2023-07-08T05:47:13;17.90;99.90
20045;DHT22;10183;47.808;9.476;2023-07-08T05:49:40;18.00;99.90
20045;DHT22;10183;47.808;9.476;2023-07-08T05:52:06;18.20;99.90
20045;DHT22;10183;47.808;9.476;2023-07-08T05:54:40;18.40;99.90
20045;DHT22;10183;47.808;9.476;2023-07-08T05:57:08;18.60;99.90
20045;DHT22;10183;47.808;9.476;2023-07-08T05:59:35;18.60;99.90
20045;DHT22;10183;47.808;9.476;2023-07-08T06:02:02;18.60;99.90
20045;DHT22;10183;47.808;9.476;2023-07-08T06:04:29;18.60;99.90
20045;DHT22;10183;47.808;9.476;2023-07-08T06:06:56;18.30;99.90
20045;DHT22;10183;47.808;9.476;2023-07-08T06:09:23;18.30;99.90
20045;DHT22;10183;47.808;9.476;2023-07-08T06:11:49;18.50;99.90
20045;DHT22;10183;47.808;9.476;2023-07-08T06:14:16;18.40;99.90
20045;DHT22;10183;47.808;9.476;2023-07-08T06:16:42;18.40;99.90
20045;DHT22;10183;47.808;9.476;2023-07-08T06:19:08;18.50;99.90
20045;DHT22;10183;47.808;9.476;2023-07-08T06:21:34;18.70;99.90
20045;DHT22;10183;47.808;9.476;2023-07-08T06:24:09;19.00;99.90
20045;DHT22;10183;47.808;9.476;2023-07-08T06:26:36;19.00;99.90
20045;DHT22;10183;47.808;9.476;2023-07-08T06:29:03;19.30;99.90
20045;DHT22;10183;47.808;9.476;2023-07-08T06:31:30;19.30;99.90
20045;DHT22;10183;47.808;9.476;2023-07-08T06:33:56;19.20;99.90
20045;DHT22;10183;47.808;9.476;2023-07-08T06:36:22;19.30;99.90
20045;DHT22;10183;47.808;9.476;2023-07-08T06:38:49;19.40;99.90
20045;DHT22;10183;47.808;9.476;2023-07-08T06:41:15;19.40;99.90
20045;DHT22;10183;47.808;9.476;2023-07-08T06:43:41;19.60;99.90
20045;DHT22;10183;47.808;9.476;2023-07-08T06:46:07;19.60;99.90
20045;DHT22;10183;47.808;9.476;2023-07-08T06:48:33;19.90;99.90
20045;DHT22;10183;47.808;9.476;2023-07-08T06:51:00;20.00;99.90
20045;DHT22;10183;47.808;9.476;2023-07-08T06:53:26;20.00;99.90
20045;DHT22;10183;47.808;9.476;2023-07-08T06:55:52;20.00;99.90
20045;DHT22;10183;47.808;9.476;2023-07-08T06:58:18;19.80;99.90
20045;DHT22;10183;47.808;9.476;2023-07-08T07:00:45;19.70;99.90
20045;DHT22;10183;47.808;9.476;2023-07-08T07:03:12;19.60;99.90
20045;DHT22;10183;47.808;9.476;2023-07-08T07:05:39;19.50;99.90
20045;DHT22;10183;47.808;9.476;2023-07-08T07:08:05;19.50;99.90
20045;DHT22;10183;47.808;9.476;2023-07-08T07:10:34;19.60;99.90
20045;DHT22;10183;47.808;9.476;2023-07-08T07:13:00;19.50;99.90
20045;DHT22;10183;47.808;9.476;2023-07-08T07:15:26;19.50;99.90
20045;DHT22;10183;47.808;9.476;2023-07-08T07:17:52;19.60;99.90
20045;DHT22;10183;47.808;9.476;2023-07-08T07:20:19;19.60;99.90
20045;DHT22;10183;47.808;9.476;2023-07-08T07:22:45;19.70;99.90
20045;DHT22;10183;47.808;9.476;2023-07-08T07:25:11;19.80;99.90
20045;DHT22;10183;47.808;9.476;2023-07-08T07:27:37;19.90;99.90
20045;DHT22;10183;47.808;9.476;2023-07-08T07:30:04;20.30;99.90
20045;DHT22;10183;47.808;9.476;2023-07-08T07:32:30;20.10;99.90
20045;DHT22;10183;47.808;9.476;2023-07-08T07:34:58;20.10;99.90
20045;DHT22;10183;47.808;9.476;2023-07-08T07:37:25;20.10;99.90
20045;DHT22;10183;47.808;9.476;2023-07-08T07:39:51;20.00;99.90
20045;DHT22;10183;47.808;9.476;2023-07-08T07:42:18;19.90;99.90
20045;DHT22;10183;47.808;9.476;2023-07-08T07:44:45;19.80;99.90
20045;DHT22;10183;47.808;9.476;2023-07-08T07:47:12;19.80;99.90
20045;DHT22;10183;47.808;9.476;2023-07-08T07:49:39;19.80;99.90
20045;DHT22;10183;47.808;9.476;2023-07-08T07:52:05;19.80;99.90
20045;DHT22;10183;47.808;9.476;2023-07-08T07:54:32;19.80;99.90
20045;DHT22;10183;47.808;9.476;2023-07-08T07:56:58;19.80;99.90
20045;DHT22;10183;47.808;9.476;2023-07-08T07:59:24;19.80;99.90
20045;DHT22;10183;47.808;9.476;2023-07-08T08:01:51;19.90;99.90
20045;DHT22;10183;47.808;9.476;2023-07-08T08:04:17;20.40;99.90
20045;DHT22;10183;47.808;9.476;2023-07-08T08:06:43;20.50;99.90
20045;DHT22;10183;47.808;9.476;2023-07-08T08:09:09;20.50;99.90
20045;DHT22;10183;47.808;9.476;2023-07-08T08:11:35;20.40;99.90
20045;DHT22;10183;47.808;9.476;2023-07-08T08:14:02;20.20;99.90
20045;DHT22;10183;47.808;9.476;2023-07-08T08:16:30;19.80;99.90
20045;DHT22;10183;47.808;9.476;2023-07-08T08:18:56;19.80;99.90
20045;DHT22;10183;47.808;9.476;2023-07-08T08:21:22;19.80;99.90
20045;DHT22;10183;47.808;9.476;2023-07-08T08:23:48;19.90;99.90
20045;DHT22;10183;47.808;9.476;2023-07-08T08:26:15;19.80;99.90
20045;DHT22;10183;47.808;9.476;2023-07-08T08:28:41;19.80;99.90
20045;DHT22;10183;47.808;9.476;2023-07-08T08:31:07;19.90;99.90
20045;DHT22;10183;47.808;9.476;2023-07-08T08:33:33;20.00;99.90
20045;DHT22;10183;47.808;9.476;2023-07-08T08:35:59;19.90;99.90
20045;DHT22;10183;47.808;9.476;2023-07-08T08:38:25;19.70;99.90
20045;DHT22;10183;47.808;9.476;2023-07-08T08:40:52;19.80;99.90
20045;DHT22;10183;47.808;9.476;2023-07-08T08:43:21;19.90;99.90
20045;DHT22;10183;47.808;9.476;2023-07-08T08:46:10;20.00;99.90
20045;DHT22;10183;47.808;9.476;2023-07-08T08:48:47;20.00;99.90
20045;DHT22;10183;47.808;9.476;2023-07-08T08:51:17;20.20;99.90
20045;DHT22;10183;47.808;9.476;2023-07-08T08:53:45;20.20;99.90
20045;DHT22;10183;47.808;9.476;2023-07-08T08:56:27;20.10;99.90
20045;DHT22;10183;47.808;9.476;2023-07-08T09:01:30;20.40;99.90
20045;DHT22;10183;47.808;9.476;2023-07-08T09:03:57;20.20;99.90
20045;DHT22;10183;47.808;9.476;2023-07-08T09:06:30;20.40;99.90
20045;DHT22;10183;47.808;9.476;2023-07-08T09:09:02;20.90;99.90
20045;DHT22;10183;47.808;9.476;2023-07-08T09:14:41;22.20;99.90
20045;DHT22;10183;47.808;9.476;2023-07-08T09:17:31;22.50;99.90
20045;DHT22;10183;47.808;9.476;2023-07-08T09:22:51;22.50;99.90
20045;DHT22;10183;47.808;9.476;2023-07-08T09:27:54;22.10;99.90
20045;DHT22;10183;47.808;9.476;2023-07-08T09:30:22;22.60;99.90
20045;DHT22;10183;47.808;9.476;2023-07-08T09:32:49;22.40;99.90
20045;DHT22;10183;47.808;9.476;2023-07-08T09:37:49;23.10;99.90
20045;DHT22;10183;47.808;9.476;2023-07-08T09:42:50;22.90;99.90
20045;DHT22;10183;47.808;9.476;2023-07-08T09:45:23;22.50;99.90
20045;DHT22;10183;47.808;9.476;2023-07-08T09:47:54;22.40;99.90
20045;DHT22;10183;47.808;9.476;2023-07-08T09:52:54;22.30;99.90
20045;DHT22;10183;47.808;9.476;2023-07-08T09:55:23;22.30;99.90
20045;DHT22;10183;47.808;9.476;2023-07-08T09:57:52;22.20;99.90
20045;DHT22;10183;47.808;9.476;2023-07-08T10:00:28;22.20;99.90
20045;DHT22;10183;47.808;9.476;2023-07-08T10:02:57;21.80;99.90
20045;DHT22;10183;47.808;9.476;2023-07-08T10:05:29;22.20;99.90
20045;DHT22;10183;47.808;9.476;2023-07-08T10:07:58;22.40;99.90
20045;DHT22;10183;47.808;9.476;2023-07-08T10:10:30;22.80;99.90
20045;DHT22;10183;47.808;9.476;2023-07-08T10:13:01;22.90;99.90
20045;DHT22;10183;47.808;9.476;2023-07-08T10:15:39;23.80;99.90
20045;DHT22;10183;47.808;9.476;2023-07-08T10:18:19;23.70;99.90
20045;DHT22;10183;47.808;9.476;2023-07-08T10:20:59;24.30;99.90
20045;DHT22;10183;47.808;9.476;2023-07-08T10:26:35;25.10;99.90
20045;DHT22;10183;47.808;9.476;2023-07-08T10:32:07;24.90;99.90
20045;DHT22;10183;47.808;9.476;2023-07-08T10:35:16;25.00;99.90
20045;DHT22;10183;47.808;9.476;2023-07-08T10:40:58;24.50;99.90
20045;DHT22;10183;47.808;9.476;2023-07-08T10:43:33;24.60;99.90
20045;DHT22;10183;47.808;9.476;2023-07-08T10:51:43;25.40;99.90
20045;DHT22;10183;47.808;9.476;2023-07-08T10:56:59;25.60;99.90
20045;DHT22;10183;47.808;9.476;2023-07-08T10:59:41;25.70;99.90
20045;DHT22;10183;47.808;9.476;2023-07-08T11:02:36;26.40;99.90
20045;DHT22;10183;47.808;9.476;2023-07-08T11:08:03;27.90;99.90
20045;DHT22;10183;47.808;9.476;2023-07-08T11:10:45;28.40;99.90
20045;DHT22;10183;47.808;9.476;2023-07-08T11:13:25;28.30;99.90
20045;DHT22;10183;47.808;9.476;2023-07-08T11:16:07;27.70;99.90
20045;DHT22;10183;47.808;9.476;2023-07-08T11:18:56;26.20;99.90
20045;DHT22;10183;47.808;9.476;2023-07-08T11:21:29;26.40;99.90
20045;DHT22;10183;47.808;9.476;2023-07-08T11:27:25;24.90;99.90
20045;DHT22;10183;47.808;9.476;2023-07-08T11:30:14;25.10;99.90
20045;DHT22;10183;47.808;9.476;2023-07-08T11:32:44;25.20;99.90
20045;DHT22;10183;47.808;9.476;2023-07-08T11:35:21;25.40;99.90
20045;DHT22;10183;47.808;9.476;2023-07-08T11:37:49;26.40;99.90
20045;DHT22;10183;47.808;9.476;2023-07-08T11:40:21;26.70;99.90
20045;DHT22;10183;47.808;9.476;2023-07-08T11:42:54;26.40;99.90
20045;DHT22;10183;47.808;9.476;2023-07-08T11:45:34;26.00;99.90
20045;DHT22;10183;47.808;9.476;2023-07-08T11:50:45;26.80;99.90
20045;DHT22;10183;47.808;9.476;2023-07-08T11:53:30;26.80;99.90
20045;DHT22;10183;47.808;9.476;2023-07-08T12:01:32;26.30;99.90
20045;DHT22;10183;47.808;9.476;2023-07-08T12:07:29;25.60;99.90
20045;DHT22;10183;47.808;9.476;2023-07-08T12:10:05;25.40;99.90
20045;DHT22;10183;47.808;9.476;2023-07-08T12:12:35;25.20;99.90
20045;DHT22;10183;47.808;9.476;2023-07-08T12:15:23;25.00;99.90
20045;DHT22;10183;47.808;9.476;2023-07-08T12:17:52;25.40;99.90
20045;DHT22;10183;47.808;9.476;2023-07-08T12:20:23;25.60;99.90
20045;DHT22;10183;47.808;9.476;2023-07-08T12:22:50;26.10;99.90
20045;DHT22;10183;47.808;9.476;2023-07-08T12:25:25;26.20;99.90
20045;DHT22;10183;47.808;9.476;2023-07-08T12:27:52;25.80;99.90
20045;DHT22;10183;47.808;9.476;2023-07-08T12:30:18;26.00;99.90
20045;DHT22;10183;47.808;9.476;2023-07-08T12:32:45;25.80;99.90
20045;DHT22;10183;47.808;9.476;2023-07-08T12:35:26;26.00;99.90
20045;DHT22;10183;47.808;9.476;2023-07-08T12:38:05;26.50;99.90
20045;DHT22;10183;47.808;9.476;2023-07-08T12:40:35;26.50;99.90
20045;DHT22;10183;47.808;9.476;2023-07-08T12:43:01;26.60;99.90
20045;DHT22;10183;47.808;9.476;2023-07-08T12:45:30;26.20;99.90
20045;DHT22;10183;47.808;9.476;2023-07-08T12:47:56;26.20;99.90
20045;DHT22;10183;47.808;9.476;2023-07-08T12:50:23;26.40;99.90
20045;DHT22;10183;47.808;9.476;2023-07-08T12:52:49;27.10;99.90
20045;DHT22;10183;47.808;9.476;2023-07-08T12:55:15;27.60;99.90
20045;DHT22;10183;47.808;9.476;2023-07-08T12:57:45;27.90;99.90
20045;DHT22;10183;47.808;9.476;2023-07-08T13:00:23;27.10;99.90
20045;DHT22;10183;47.808;9.476;2023-07-08T13:02:57;26.80;99.90
20045;DHT22;10183;47.808;9.476;2023-07-08T13:05:26;26.40;99.90
20045;DHT22;10183;47.808;9.476;2023-07-08T13:07:53;26.70;99.90
20045;DHT22;10183;47.808;9.476;2023-07-08T13:10:23;26.80;99.90
20045;DHT22;10183;47.808;9.476;2023-07-08T13:13:00;26.40;99.90
20045;DHT22;10183;47.808;9.476;2023-07-08T13:15:36;26.30;99.90
20045;DHT22;10183;47.808;9.476;2023-07-08T13:18:04;27.30;99.90
20045;DHT22;10183;47.808;9.476;2023-07-08T13:20:30;27.00;99.90
20045;DHT22;10183;47.808;9.476;2023-07-08T13:23:00;27.00;99.90
20045;DHT22;10183;47.808;9.476;2023-07-08T13:25:29;26.80;99.90
20045;DHT22;10183;47.808;9.476;2023-07-08T13:28:01;27.10;99.90
20045;DHT22;10183;47.808;9.476;2023-07-08T13:30:30;26.70;99.90
20045;DHT22;10183;47.808;9.476;2023-07-08T13:32:58;27.70;99.90
20045;DHT22;10183;47.808;9.476;2023-07-08T13:37:53;28.00;99.90
20045;DHT22;10183;47.808;9.476;2023-07-08T13:40:20;28.60;99.90
20045;DHT22;10183;47.808;9.476;2023-07-08T13:42:51;30.10;94.80
20045;DHT22;10183;47.808;9.476;2023-07-08T13:45:26;29.50;81.70
20045;DHT22;10183;47.808;9.476;2023-07-08T13:48:13;29.30;55.90
20045;DHT22;10183;47.808;9.476;2023-07-08T13:50:49;29.90;64.30
20045;DHT22;10183;47.808;9.476;2023-07-08T13:53:22;31.20;37.90
20045;DHT22;10183;47.808;9.476;2023-07-08T13:55:55;33.10;25.90
20045;DHT22;10183;47.808;9.476;2023-07-08T13:58:27;34.20;13.60
20045;DHT22;10183;47.808;9.476;2023-07-08T14:00:53;32.30;12.10
20045;DHT22;10183;47.808;9.476;2023-07-08T14:03:20;34.10;14.00
20045;DHT22;10183;47.808;9.476;2023-07-08T14:05:46;35.50;5.50
20045;DHT22;10183;47.808;9.476;2023-07-08T14:08:14;33.90;8.90
20045;DHT22;10183;47.808;9.476;2023-07-08T14:10:41;33.30;9.60
20045;DHT22;10183;47.808;9.476;2023-07-08T14:13:07;31.50;21.70
20045;DHT22;10183;47.808;9.476;2023-07-08T14:15:33;31.90;25.50
20045;DHT22;10183;47.808;9.476;2023-07-08T14:18:03;31.30;22.30
20045;DHT22;10183;47.808;9.476;2023-07-08T14:20:29;32.30;21.40
20045;DHT22;10183;47.808;9.476;2023-07-08T14:22:56;32.50;7.60
20045;DHT22;10183;47.808;9.476;2023-07-08T14:25:22;34.90;8.40
20045;DHT22;10183;47.808;9.476;2023-07-08T14:27:50;35.40;1.00
20045;DHT22;10183;47.808;9.476;2023-07-08T14:30:16;36.90;1.00
20045;DHT22;10183;47.808;9.476;2023-07-08T14:32:43;34.80;1.00
20045;DHT22;10183;47.808;9.476;2023-07-08T14:35:28;33.30;1.00
20045;DHT22;10183;47.808;9.476;2023-07-08T14:37:54;33.00;1.00
20045;DHT22;10183;47.808;9.476;2023-07-08T14:40:33;33.00;8.20
20045;DHT22;10183;47.808;9.476;2023-07-08T14:43:15;32.60;1.00
20045;DHT22;10183;47.808;9.476;2023-07-08T14:45:50;35.90;2.00
20045;DHT22;10183;47.808;9.476;2023-07-08T14:48:17;35.20;1.00
20045;DHT22;10183;47.808;9.476;2023-07-08T14:50:43;33.60;1.00
20045;DHT22;10183;47.808;9.476;2023-07-08T14:53:09;34.50;1.00
20045;DHT22;10183;47.808;9.476;2023-07-08T14:55:36;33.90;1.00
20045;DHT22;10183;47.808;9.476;2023-07-08T14:58:03;33.60;1.00
20045;DHT22;10183;47.808;9.476;2023-07-08T15:00:29;33.80;1.00
20045;DHT22;10183;47.808;9.476;2023-07-08T15:02:56;33.20;1.00
20045;DHT22;10183;47.808;9.476;2023-07-08T15:05:24;33.70;1.00
20045;DHT22;10183;47.808;9.476;2023-07-08T15:07:53;36.70;1.00
20045;DHT22;10183;47.808;9.476;2023-07-08T15:10:22;35.20;1.00
20045;DHT22;10183;47.808;9.476;2023-07-08T15:12:50;35.10;1.00
20045;DHT22;10183;47.808;9.476;2023-07-08T15:15:23;34.80;1.00
20045;DHT22;10183;47.808;9.476;2023-07-08T15:17:58;34.50;1.00
20045;DHT22;10183;47.808;9.476;2023-07-08T15:20:25;35.10;1.00
20045;DHT22;10183;47.808;9.476;2023-07-08T15:22:52;34.70;1.00
20045;DHT22;10183;47.808;9.476;2023-07-08T15:25:18;34.90;1.00
20045;DHT22;10183;47.808;9.476;2023-07-08T15:27:48;34.70;1.00
20045;DHT22;10183;47.808;9.476;2023-07-08T15:30:18;34.20;1.00
20045;DHT22;10183;47.808;9.476;2023-07-08T15:32:45;33.70;1.00
20045;DHT22;10183;47.808;9.476;2023-07-08T15:35:17;34.30;2.00
20045;DHT22;10183;47.808;9.476;2023-07-08T15:37:44;34.10;1.00
20045;DHT22;10183;47.808;9.476;2023-07-08T15:40:16;36.20;3.20
20045;DHT22;10183;47.808;9.476;2023-07-08T15:42:45;35.50;1.00
20045;DHT22;10183;47.808;9.476;2023-07-08T15:45:25;34.40;1.00
20045;DHT22;10183;47.808;9.476;2023-07-08T15:47:52;33.90;3.50
20045;DHT22;10183;47.808;9.476;2023-07-08T15:50:25;33.30;2.60
20045;DHT22;10183;47.808;9.476;2023-07-08T15:52:52;33.30;1.00
20045;DHT22;10183;47.808;9.476;2023-07-08T15:55:30;33.20;1.80
20045;DHT22;10183;47.808;9.476;2023-07-08T15:58:03;33.10;1.00
20045;DHT22;10183;47.808;9.476;2023-07-08T16:00:32;33.20;1.00
20045;DHT22;10183;47.808;9.476;2023-07-08T16:03:05;32.60;1.00
20045;DHT22;10183;47.808;9.476;2023-07-08T16:05:32;32.60;2.50
20045;DHT22;10183;47.808;9.476;2023-07-08T16:08:02;32.10;1.00
20045;DHT22;10183;47.808;9.476;2023-07-08T16:10:29;32.30;1.00
20045;DHT22;10183;47.808;9.476;2023-07-08T16:12:56;31.80;1.00
20045;DHT22;10183;47.808;9.476;2023-07-08T16:15:29;31.70;1.00
20045;DHT22;10183;47.808;9.476;2023-07-08T16:17:57;31.90;1.00
20045;DHT22;10183;47.808;9.476;2023-07-08T16:20:28;31.90;1.00
20045;DHT22;10183;47.808;9.476;2023-07-08T16:22:54;31.70;1.00
20045;DHT22;10183;47.808;9.476;2023-07-08T16:25:33;31.90;1.00
20045;DHT22;10183;47.808;9.476;2023-07-08T16:28:00;31.50;1.00
20045;DHT22;10183;47.808;9.476;2023-07-08T16:30:27;30.80;1.00
20045;DHT22;10183;47.808;9.476;2023-07-08T16:32:54;30.50;3.10
20045;DHT22;10183;47.808;9.476;2023-07-08T16:35:21;30.20;1.40
20045;DHT22;10183;47.808;9.476;2023-07-08T16:37:50;30.40;1.00
20045;DHT22;10183;47.808;9.476;2023-07-08T16:40:22;30.10;1.00
20045;DHT22;10183;47.808;9.476;2023-07-08T16:42:50;29.80;1.00
20045;DHT22;10183;47.808;9.476;2023-07-08T16:45:19;29.80;3.30
20045;DHT22;10183;47.808;9.476;2023-07-08T16:47:47;29.50;7.00
20045;DHT22;10183;47.808;9.476;2023-07-08T16:50:14;29.10;7.60
20045;DHT22;10183;47.808;9.476;2023-07-08T16:52:41;29.20;11.80